Time;durP1;ratioP1;P1;durP2;ratioP2;P2;SDS_P1;SDS_P2;PMS_P1;PMS_P2;Temp;Humidity;BMP_temperature;BMP_pressure;BME280_temperature;BME280_humidity;BME280_pressure;Samples;Min_cycle;Max_cycle;Signal;HPM_P1;HPM_P2
2023/05/09 00:00:35;;;;;;;13.00;6.82;;;14.60;99.90;;;;;;4987968;28;20050;-77
2023/05/09 00:03:04;;;;;;;17.67;8.20;;;14.60;99.90;;;;;;4989892;28;20042;-76
2023/05/09 00:05:30;;;;;;;15.70;6.28;;;14.60;99.90;;;;;;4989297;28;20429;-77
2023/05/09 00:07:56;;;;;;;14.55;6.80;;;14.50;99.90;;;;;;4989574;28;20034;-77
2023/05/09 00:10:22;;;;;;;13.60;6.70;;;14.50;99.90;;;;;;4992230;28;20438;-76
2023/05/09 00:12:48;;;;;;;14.73;5.47;;;14.50;99.90;;;;;;5009485;28;20041;-76
2023/05/09 00:15:14;;;;;;;13.85;5.93;;;14.50;99.90;;;;;;5007622;28;20493;-76
2023/05/09 00:17:40;;;;;;;15.68;6.53;;;14.50;99.90;;;;;;5004105;28;20065;-76
2023/05/09 00:20:11;;;;;;;16.38;6.68;;;14.50;99.90;;;;;;5006365;28;20045;-76
2023/05/09 00:22:38;;;;;;;20.20;6.75;;;14.40;99.90;;;;;;4990382;28;20173;-77
2023/05/09 00:25:05;;;;;;;18.58;7.32;;;14.40;99.90;;;;;;4986087;28;20047;-76
2023/05/09 00:27:31;;;;;;;19.08;7.00;;;14.40;99.90;;;;;;4984924;28;20050;-76
2023/05/09 00:29:56;;;;;;;23.20;8.00;;;14.40;99.90;;;;;;4985943;28;20040;-77
2023/05/09 00:32:23;;;;;;;16.58;6.07;;;14.40;99.90;;;;;;4987166;28;20048;-76
2023/05/09 00:34:49;;;;;;;16.83;7.70;;;14.40;99.90;;;;;;4985992;28;20042;-76
2023/05/09 00:37:17;;;;;;;22.98;8.50;;;14.50;99.90;;;;;;4985943;28;20507;-76
2023/05/09 00:39:42;;;;;;;17.70;7.47;;;14.40;99.90;;;;;;4985024;28;20121;-76
2023/05/09 00:42:08;;;;;;;18.23;7.45;;;14.40;99.90;;;;;;4986338;28;20125;-77
2023/05/09 00:44:33;;;;;;;13.43;6.85;;;14.40;99.90;;;;;;4985894;28;20061;-76
2023/05/09 00:46:59;;;;;;;17.88;7.05;;;14.40;99.90;;;;;;4985895;28;20081;-77
2023/05/09 00:49:25;;;;;;;20.60;7.85;;;14.40;99.90;;;;;;4986397;28;20302;-76
2023/05/09 00:51:51;;;;;;;14.48;6.97;;;14.40;99.90;;;;;;4986448;28;20053;-76
2023/05/09 00:54:17;;;;;;;17.23;7.90;;;14.30;99.90;;;;;;4974971;28;20042;-76
2023/05/09 00:56:42;;;;;;;17.33;8.15;;;14.40;99.90;;;;;;4965087;28;20050;-76
2023/05/09 00:59:08;;;;;;;15.00;6.65;;;14.30;99.90;;;;;;4966574;28;20050;-76
2023/05/09 01:01:34;;;;;;;13.35;7.25;;;14.40;99.90;;;;;;4965792;28;20047;-77
2023/05/09 01:04:00;;;;;;;19.23;6.90;;;14.30;99.90;;;;;;4979947;28;20536;-76
2023/05/09 01:06:39;;;;;;;17.65;7.80;;;14.30;99.90;;;;;;5048303;23;20066;-76
2023/05/09 01:09:23;;;;;;;13.88;7.20;;;14.30;99.90;;;;;;4984323;28;20050;-77
2023/05/09 01:12:24;;;;;;;16.80;7.35;;;14.30;99.90;;;;;;4974344;28;20035;-76
2023/05/09 01:15:23;;;;;;;16.63;6.53;;;14.30;99.90;;;;;;4974821;28;20493;-76
2023/05/09 01:18:32;;;;;;;18.60;7.53;;;14.30;99.90;;;;;;4984612;28;20109;-76
2023/05/09 01:21:07;;;;;;;13.20;5.78;;;14.30;99.90;;;;;;4974746;28;20062;-76
2023/05/09 01:24:00;;;;;;;19.45;7.65;;;14.30;99.90;;;;;;4984159;28;20069;-76
2023/05/09 01:26:40;;;;;;;;;;;14.30;99.90;;;;;;4983786;28;20054;-77
2023/05/09 01:29:24;;;;;;;19.60;9.18;;;14.30;99.90;;;;;;4985275;28;19918;-76
2023/05/09 01:31:52;;;;;;;14.00;7.75;;;14.30;99.90;;;;;;4984145;28;20501;-76
2023/05/09 01:34:19;;;;;;;18.20;7.22;;;14.30;99.90;;;;;;4985233;28;20109;-77
2023/05/09 01:36:48;;;;;;;18.40;8.05;;;14.20;99.90;;;;;;4983965;28;20046;-76
2023/05/09 01:39:16;;;;;;;19.17;8.00;;;14.20;99.90;;;;;;4983096;28;20038;-76
2023/05/09 01:41:42;;;;;;;18.48;7.03;;;14.20;99.90;;;;;;4973989;28;20074;-76
2023/05/09 01:44:11;;;;;;;17.58;7.53;;;14.20;99.90;;;;;;4985760;28;20460;-77
2023/05/09 01:46:37;;;;;;;16.33;8.05;;;14.20;99.90;;;;;;4968417;28;20126;-77
2023/05/09 01:49:06;;;;;;;19.30;7.45;;;14.20;99.90;;;;;;4965867;28;20645;-76
2023/05/09 01:51:33;;;;;;;19.50;8.43;;;14.20;99.90;;;;;;4980858;28;20130;-76
2023/05/09 01:54:00;;;;;;;18.27;8.15;;;14.20;99.90;;;;;;4984231;28;20057;-77
2023/05/09 01:56:26;;;;;;;15.35;7.07;;;14.20;99.90;;;;;;4984432;28;20528;-76
2023/05/09 01:58:55;;;;;;;18.52;7.50;;;14.20;99.90;;;;;;4985667;28;20117;-76
2023/05/09 02:01:21;;;;;;;20.52;9.10;;;14.30;99.90;;;;;;4985168;28;20129;-76
2023/05/09 02:03:51;;;;;;;20.67;9.00;;;14.30;99.90;;;;;;4984489;28;20030;-76
2023/05/09 02:06:19;;;;;;;20.58;8.65;;;14.20;99.90;;;;;;4966990;28;20473;-76
2023/05/09 02:08:46;;;;;;;15.98;8.68;;;14.30;99.90;;;;;;4984158;28;20038;-77
2023/05/09 02:11:11;;;;;;;19.55;7.05;;;14.20;99.90;;;;;;4972812;28;20051;-77
2023/05/09 02:13:37;;;;;;;19.42;7.63;;;14.30;99.90;;;;;;4983307;28;20408;-76
2023/05/09 02:16:05;;;;;;;17.30;8.30;;;14.20;99.90;;;;;;4984587;28;20643;-76
2023/05/09 02:18:31;;;;;;;19.65;7.45;;;14.20;99.90;;;;;;4984596;28;20039;-76
2023/05/09 02:20:57;;;;;;;23.20;7.65;;;14.30;99.90;;;;;;4984178;28;20054;-76
2023/05/09 02:23:22;;;;;;;16.00;7.45;;;14.30;99.90;;;;;;4983880;28;20050;-76
2023/05/09 02:25:48;;;;;;;18.95;7.60;;;14.30;99.90;;;;;;4983429;28;20031;-76
2023/05/09 02:28:15;;;;;;;16.95;7.60;;;14.30;99.90;;;;;;4984676;28;20069;-76
2023/05/09 02:30:44;;;;;;;17.85;7.70;;;14.30;99.90;;;;;;4984061;28;20042;-76
2023/05/09 02:33:11;;;;;;;22.40;8.25;;;14.30;99.90;;;;;;4984367;28;20062;-76
2023/05/09 02:35:38;;;;;;;20.10;8.50;;;14.30;99.90;;;;;;4983156;28;20069;-76
2023/05/09 02:38:05;;;;;;;19.58;9.15;;;14.30;99.90;;;;;;4982653;28;20051;-76
2023/05/09 02:40:32;;;;;;;21.13;8.68;;;14.30;99.90;;;;;;4981565;28;20105;-76
2023/05/09 02:42:57;;;;;;;19.42;7.47;;;14.30;99.90;;;;;;4983649;28;20047;-77
2023/05/09 02:45:23;;;;;;;23.35;8.90;;;14.30;99.90;;;;;;4984726;28;20066;-76
2023/05/09 02:47:48;;;;;;;24.80;8.60;;;14.30;99.90;;;;;;4982344;28;20393;-77
2023/05/09 02:50:14;;;;;;;22.40;9.98;;;14.30;99.90;;;;;;4964559;28;20085;-77
2023/05/09 02:52:40;;;;;;;19.73;9.02;;;14.30;99.90;;;;;;4956632;28;20049;-76
2023/05/09 02:55:06;;;;;;;20.17;7.70;;;14.30;99.90;;;;;;4983483;28;20046;-76
2023/05/09 02:57:32;;;;;;;21.60;8.65;;;14.30;99.90;;;;;;4983810;28;20050;-76
2023/05/09 02:59:58;;;;;;;20.38;10.07;;;14.30;99.90;;;;;;4983934;28;20065;-77
2023/05/09 03:02:23;;;;;;;22.92;8.43;;;14.30;99.90;;;;;;4983310;28;20053;-76
2023/05/09 03:04:49;;;;;;;24.15;9.00;;;14.30;99.90;;;;;;4983720;28;20030;-76
2023/05/09 03:07:15;;;;;;;17.10;8.48;;;14.30;99.90;;;;;;4983227;28;20046;-76
2023/05/09 03:09:40;;;;;;;18.55;7.97;;;14.30;99.90;;;;;;4982563;28;20049;-76
2023/05/09 03:12:06;;;;;;;22.02;8.93;;;14.30;99.90;;;;;;4980451;28;20038;-76
2023/05/09 03:14:31;;;;;;;21.58;7.97;;;14.30;99.90;;;;;;4983783;28;20054;-76
2023/05/09 03:16:57;;;;;;;29.45;9.95;;;14.30;99.90;;;;;;4972362;28;20066;-76
2023/05/09 03:19:23;;;;;;;28.55;11.30;;;14.30;99.90;;;;;;4963863;28;20038;-76
2023/05/09 03:21:48;;;;;;;23.33;10.05;;;14.30;99.90;;;;;;4975675;28;20509;-76
2023/05/09 03:24:14;;;;;;;26.65;10.05;;;14.30;99.90;;;;;;4982265;28;20038;-76
2023/05/09 03:26:39;;;;;;;27.50;11.10;;;14.30;99.90;;;;;;4967665;28;20046;-76
2023/05/09 03:29:05;;;;;;;24.38;10.70;;;14.30;99.90;;;;;;4980912;28;20039;-76
2023/05/09 03:31:31;;;;;;;22.83;8.32;;;14.30;99.90;;;;;;4983314;28;20058;-76
2023/05/09 03:33:57;;;;;;;27.73;10.00;;;14.30;99.90;;;;;;4984124;28;20042;-76
2023/05/09 03:36:22;;;;;;;27.17;10.23;;;14.30;99.90;;;;;;4984188;28;20050;-76
2023/05/09 03:38:48;;;;;;;27.40;9.63;;;14.30;99.90;;;;;;4981244;28;20041;-76
2023/05/09 03:41:16;;;;;;;25.40;9.52;;;14.20;99.90;;;;;;4982185;28;20043;-76
2023/05/09 03:43:42;;;;;;;29.83;10.77;;;14.20;99.90;;;;;;4983967;28;20050;-76
2023/05/09 03:46:08;;;;;;;27.10;9.90;;;14.20;99.90;;;;;;4983830;28;20412;-76
2023/05/09 03:48:34;;;;;;;28.10;10.65;;;14.20;99.90;;;;;;4982929;28;20500;-76
2023/05/09 03:50:59;;;;;;;26.15;10.15;;;14.30;99.90;;;;;;4984505;28;20060;-76
2023/05/09 03:53:25;;;;;;;26.20;11.02;;;14.30;99.90;;;;;;4986531;28;20487;-76
2023/05/09 03:55:51;;;;;;;27.30;10.32;;;14.30;99.90;;;;;;4986752;28;20122;-76
2023/05/09 03:58:18;;;;;;;28.25;9.98;;;14.30;99.90;;;;;;4987286;28;20035;-76
2023/05/09 04:00:44;;;;;;;30.75;11.10;;;14.30;99.90;;;;;;4987181;28;20058;-76
2023/05/09 04:03:10;;;;;;;25.65;8.80;;;14.20;99.90;;;;;;4985317;28;20042;-76
2023/05/09 04:05:35;;;;;;;25.23;10.02;;;14.20;99.90;;;;;;4986759;28;20607;-77
2023/05/09 04:08:02;;;;;;;31.90;10.80;;;14.20;99.90;;;;;;4986901;28;20043;-77
2023/05/09 04:10:28;;;;;;;36.15;10.95;;;14.20;99.90;;;;;;4980923;28;20069;-76
2023/05/09 04:12:54;;;;;;;34.60;11.90;;;14.20;99.90;;;;;;4967749;28;20093;-76
2023/05/09 04:15:20;;;;;;;24.65;9.65;;;14.30;99.90;;;;;;4967593;28;20042;-76
2023/05/09 04:17:46;;;;;;;27.92;11.10;;;14.30;99.90;;;;;;4967335;28;20050;-77
2023/05/09 04:20:12;;;;;;;28.35;10.40;;;14.30;99.90;;;;;;4967232;28;20042;-78
2023/05/09 04:22:37;;;;;;;30.05;9.90;;;14.20;99.90;;;;;;4980892;28;20034;-76
2023/05/09 04:25:03;;;;;;;23.80;9.95;;;14.20;99.90;;;;;;5001340;28;20053;-76
2023/05/09 04:27:29;;;;;;;29.67;11.40;;;14.30;99.90;;;;;;4984838;28;20050;-76
2023/05/09 04:29:55;;;;;;;33.08;9.98;;;14.20;99.90;;;;;;4985465;28;20145;-76
2023/05/09 04:32:22;;;;;;;25.30;11.18;;;14.20;99.90;;;;;;4987084;28;20441;-76
2023/05/09 04:34:48;;;;;;;31.98;11.15;;;14.20;99.90;;;;;;4986500;28;20105;-76
2023/05/09 04:37:13;;;;;;;26.75;11.02;;;14.20;99.90;;;;;;4986656;28;20077;-76
2023/05/09 04:39:39;;;;;;;31.98;11.30;;;14.20;99.90;;;;;;4983802;28;20047;-76
2023/05/09 04:42:04;;;;;;;32.13;11.02;;;14.20;99.90;;;;;;4986627;28;20052;-76
2023/05/09 04:44:30;;;;;;;26.55;11.30;;;14.20;99.90;;;;;;4985725;28;20454;-77
2023/05/09 04:46:56;;;;;;;31.90;12.43;;;14.20;99.90;;;;;;4985751;28;20078;-76
2023/05/09 04:49:22;;;;;;;33.90;12.68;;;14.30;99.90;;;;;;4986263;28;20038;-77
2023/05/09 04:51:49;;;;;;;27.65;12.18;;;14.20;99.90;;;;;;4984458;28;20100;-77
2023/05/09 04:54:15;;;;;;;31.65;11.82;;;14.20;99.90;;;;;;4985259;28;20047;-77
2023/05/09 04:56:40;;;;;;;34.38;9.98;;;14.20;99.90;;;;;;4985663;28;20522;-77
2023/05/09 04:59:06;;;;;;;32.28;11.50;;;14.20;99.90;;;;;;4986125;28;20070;-77
2023/05/09 05:01:31;;;;;;;30.77;11.32;;;14.30;99.90;;;;;;4985122;28;20122;-77
2023/05/09 05:03:57;;;;;;;28.10;10.55;;;14.20;99.90;;;;;;4986207;28;20053;-77
2023/05/09 05:06:23;;;;;;;29.92;11.55;;;14.20;99.90;;;;;;4968815;28;20393;-77
2023/05/09 05:08:48;;;;;;;29.38;11.75;;;14.30;99.90;;;;;;4984870;28;20046;-77
2023/05/09 05:11:16;;;;;;;36.88;11.07;;;14.30;99.90;;;;;;4985518;28;20085;-77
2023/05/09 05:13:41;;;;;;;28.92;11.23;;;14.30;99.90;;;;;;4985566;28;20143;-77
2023/05/09 05:16:07;;;;;;;34.22;11.18;;;14.30;99.90;;;;;;4985286;28;20149;-77
2023/05/09 05:18:32;;;;;;;35.22;11.98;;;14.30;99.90;;;;;;4985564;28;20545;-77
2023/05/09 05:20:58;;;;;;;30.30;11.18;;;14.30;99.90;;;;;;4985386;28;20074;-77
2023/05/09 05:23:24;;;;;;;35.85;11.30;;;14.30;99.90;;;;;;4971836;28;20071;-77
2023/05/09 05:25:49;;;;;;;30.70;11.27;;;14.40;99.90;;;;;;4984774;28;20397;-77
2023/05/09 05:28:15;;;;;;;30.67;11.98;;;14.40;99.90;;;;;;4983133;28;20093;-77
2023/05/09 05:30:40;;;;;;;30.17;12.18;;;14.50;99.90;;;;;;4983882;28;20057;-77
2023/05/09 05:33:06;;;;;;;37.50;13.90;;;14.50;99.90;;;;;;4982861;28;20468;-78
2023/05/09 05:35:31;;;;;;;40.83;13.80;;;14.50;99.90;;;;;;4983040;28;20081;-77
2023/05/09 05:37:57;;;;;;;34.42;13.23;;;14.50;99.90;;;;;;4984811;28;20406;-76
2023/05/09 05:40:22;;;;;;;39.85;13.82;;;14.60;99.90;;;;;;4982270;28;20115;-77
2023/05/09 05:42:48;;;;;;;34.65;12.45;;;14.60;99.90;;;;;;4984093;28;20070;-77
2023/05/09 05:45:14;;;;;;;34.55;13.80;;;14.60;99.90;;;;;;4982441;28;20034;-79
2023/05/09 05:47:39;;;;;;;44.88;14.07;;;14.60;99.90;;;;;;4984298;28;20519;-78
2023/05/09 05:50:07;;;;;;;38.53;13.95;;;14.60;99.90;;;;;;4967314;28;20082;-78
2023/05/09 05:52:33;;;;;;;37.25;14.13;;;14.60;99.90;;;;;;4976159;28;20444;-77
2023/05/09 05:54:58;;;;;;;41.58;14.40;;;14.60;99.90;;;;;;4974584;28;20118;-77
2023/05/09 05:57:24;;;;;;;38.50;14.02;;;14.60;99.90;;;;;;4984288;28;20437;-76
2023/05/09 05:59:50;;;;;;;46.78;15.38;;;14.70;99.90;;;;;;4966517;28;20490;-76
2023/05/09 06:02:16;;;;;;;42.55;13.15;;;14.70;99.90;;;;;;4972293;28;20078;-76
2023/05/09 06:04:42;;;;;;;42.13;14.23;;;14.60;99.90;;;;;;4983133;28;20042;-76
2023/05/09 06:07:08;;;;;;;47.08;13.32;;;14.70;99.90;;;;;;4981767;28;20058;-77
2023/05/09 06:09:34;;;;;;;42.70;14.48;;;14.70;99.90;;;;;;4980939;28;20425;-75
2023/05/09 06:11:59;;;;;;;45.95;14.73;;;14.70;99.90;;;;;;4980966;28;20483;-75
2023/05/09 06:14:25;;;;;;;34.95;14.02;;;14.70;99.90;;;;;;4980530;28;20457;-75
2023/05/09 06:16:51;;;;;;;48.60;15.38;;;14.80;99.90;;;;;;4981278;28;20101;-76
2023/05/09 06:19:17;;;;;;;43.17;15.52;;;14.80;99.90;;;;;;4981550;28;20030;-76
2023/05/09 06:21:43;;;;;;;41.95;14.57;;;14.80;99.90;;;;;;4980435;28;20496;-77
2023/05/09 06:24:08;;;;;;;45.90;17.17;;;14.90;99.90;;;;;;4965350;28;20038;-77
2023/05/09 06:26:35;;;;;;;47.95;16.00;;;14.90;99.90;;;;;;4964805;28;20538;-77
2023/05/09 06:29:01;;;;;;;48.88;18.23;;;14.90;99.90;;;;;;4980937;28;20122;-74
2023/05/09 06:31:26;;;;;;;40.17;14.82;;;15.00;99.90;;;;;;4985890;28;20129;-75
2023/05/09 06:33:52;;;;;;;47.35;15.65;;;15.00;99.90;;;;;;4983777;28;20030;-75
2023/05/09 06:36:17;;;;;;;41.15;14.27;;;15.00;99.90;;;;;;4998881;28;20057;-75
2023/05/09 06:38:43;;;;;;;46.95;15.57;;;15.00;99.90;;;;;;5001270;28;20493;-75
2023/05/09 06:41:08;;;;;;;41.13;15.43;;;15.10;99.90;;;;;;4992029;28;20113;-75
2023/05/09 06:43:34;;;;;;;45.50;14.02;;;15.10;99.90;;;;;;4970733;28;20039;-75
2023/05/09 06:46:00;;;;;;;39.00;12.43;;;15.10;99.90;;;;;;4963890;28;20066;-75
2023/05/09 06:48:25;;;;;;;40.47;13.70;;;15.10;99.90;;;;;;4981211;28;20599;-75
2023/05/09 06:50:51;;;;;;;54.72;16.48;;;15.10;99.90;;;;;;4983749;28;20049;-75
2023/05/09 06:53:16;;;;;;;40.10;13.10;;;15.10;99.90;;;;;;4968558;28;20567;-75
2023/05/09 06:55:42;;;;;;;47.35;17.42;;;15.20;99.90;;;;;;4992828;28;20409;-74
2023/05/09 06:58:08;;;;;;;42.60;14.77;;;15.10;99.90;;;;;;4982147;28;20207;-74
2023/05/09 07:00:34;;;;;;;42.85;15.57;;;15.20;99.90;;;;;;4963550;28;20043;-74
2023/05/09 07:03:00;;;;;;;50.42;16.17;;;15.20;99.90;;;;;;4962912;28;20082;-74
2023/05/09 07:05:25;;;;;;;56.75;18.30;;;15.20;99.90;;;;;;4962143;28;20054;-74
2023/05/09 07:07:53;;;;;;;46.08;15.05;;;15.30;99.90;;;;;;4979819;28;20224;-74
2023/05/09 07:10:20;;;;;;;51.97;16.33;;;15.30;99.90;;;;;;4979341;28;20093;-74
2023/05/09 07:12:46;;;;;;;36.70;13.70;;;15.30;99.90;;;;;;4974392;28;20065;-74
2023/05/09 07:15:12;;;;;;;44.97;14.63;;;15.40;99.90;;;;;;4991931;28;20484;-75
2023/05/09 07:17:38;;;;;;;41.72;14.98;;;15.40;99.90;;;;;;4986319;28;20400;-73
2023/05/09 07:20:04;;;;;;;47.25;16.02;;;15.40;99.90;;;;;;4985476;28;20489;-74
2023/05/09 07:22:30;;;;;;;45.05;16.90;;;15.40;99.90;;;;;;4971117;28;20050;-73
2023/05/09 07:24:55;;;;;;;49.90;15.75;;;15.50;99.90;;;;;;4963312;28;20045;-74
2023/05/09 07:27:21;;;;;;;47.40;15.98;;;15.50;99.90;;;;;;4966936;28;20281;-72
2023/05/09 07:29:48;;;;;;;48.80;15.77;;;15.50;99.90;;;;;;4965177;28;20583;-72
2023/05/09 07:32:13;;;;;;;38.03;14.88;;;15.50;99.90;;;;;;4966947;28;20062;-72
2023/05/09 07:34:39;;;;;;;44.65;16.40;;;15.50;99.90;;;;;;4966418;28;20453;-72
2023/05/09 07:37:05;;;;;;;47.83;15.20;;;15.50;99.90;;;;;;4949094;28;20220;-72
2023/05/09 07:39:30;;;;;;;40.45;15.73;;;15.50;99.90;;;;;;4964204;28;20446;-73
2023/05/09 07:41:56;;;;;;;43.83;16.00;;;15.50;99.90;;;;;;4966062;28;20042;-74
2023/05/09 07:44:22;;;;;;;36.88;14.65;;;15.50;99.90;;;;;;4966954;28;20070;-72
2023/05/09 07:46:47;;;;;;;46.83;14.45;;;15.50;99.90;;;;;;4966204;28;20046;-72
2023/05/09 07:49:13;;;;;;;40.65;13.63;;;15.50;99.90;;;;;;4964857;28;20057;-73
2023/05/09 07:51:39;;;;;;;44.03;14.98;;;15.50;99.90;;;;;;4964912;28;20039;-72
2023/05/09 07:54:04;;;;;;;32.75;12.57;;;15.50;99.90;;;;;;4965518;28;20046;-72
2023/05/09 07:56:30;;;;;;;34.25;13.85;;;15.50;99.90;;;;;;4965571;28;20042;-72
2023/05/09 07:58:55;;;;;;;39.00;12.88;;;15.50;99.90;;;;;;4966145;28;20573;-74
2023/05/09 08:01:21;;;;;;;48.50;17.35;;;15.50;99.90;;;;;;4964963;28;20046;-72
2023/05/09 08:03:47;;;;;;;37.53;13.25;;;15.50;99.90;;;;;;4965907;28;20043;-72
2023/05/09 08:06:12;;;;;;;44.55;13.60;;;15.50;99.90;;;;;;4964643;28;20057;-72
2023/05/09 08:08:38;;;;;;;36.50;12.32;;;15.50;99.90;;;;;;4964678;28;20139;-72
2023/05/09 08:11:04;;;;;;;36.00;14.00;;;15.50;99.90;;;;;;4975362;28;20086;-73
2023/05/09 08:13:30;;;;;;;27.35;12.70;;;15.60;99.90;;;;;;4985111;28;20539;-72
2023/05/09 08:15:56;;;;;;;32.88;12.68;;;15.50;99.90;;;;;;4984032;28;20046;-74
2023/05/09 08:18:21;;;;;;;37.95;12.95;;;15.60;99.90;;;;;;4985605;28;20042;-73
2023/05/09 08:20:47;;;;;;;31.95;12.70;;;15.60;99.90;;;;;;4984917;28;20046;-72
2023/05/09 08:23:12;;;;;;;26.40;11.70;;;15.60;99.90;;;;;;4984356;28;20058;-72
2023/05/09 08:25:38;;;;;;;27.40;11.88;;;15.60;99.90;;;;;;4984551;28;20424;-72
2023/05/09 08:28:04;;;;;;;32.72;11.48;;;15.60;99.90;;;;;;4985253;28;20520;-72
2023/05/09 08:30:29;;;;;;;25.83;11.68;;;15.60;99.90;;;;;;4984434;28;20096;-72
2023/05/09 08:32:55;;;;;;;26.40;11.65;;;15.70;99.90;;;;;;4985313;28;20038;-72
2023/05/09 08:35:21;;;;;;;35.20;11.10;;;15.70;99.90;;;;;;4985142;28;20047;-72
2023/05/09 08:37:46;;;;;;;29.50;11.18;;;15.70;99.90;;;;;;4983970;28;20085;-72
2023/05/09 08:40:12;;;;;;;32.50;12.05;;;15.80;99.90;;;;;;4983146;28;20039;-72
2023/05/09 08:42:39;;;;;;;36.60;12.77;;;15.80;99.90;;;;;;4983510;28;20053;-72
2023/05/09 08:45:15;;;;;;;29.52;12.60;;;15.90;99.90;;;;;;4984855;28;20043;-72
2023/05/09 08:47:41;;;;;;;36.78;11.98;;;15.90;99.90;;;;;;4984861;28;20100;-72
2023/05/09 08:50:08;;;;;;;27.98;12.27;;;15.90;99.90;;;;;;4984607;28;20137;-73
2023/05/09 08:52:34;;;;;;;26.25;10.23;;;16.00;99.90;;;;;;4983092;28;20085;-72
2023/05/09 08:55:01;;;;;;;32.15;12.38;;;16.00;99.90;;;;;;4983788;28;20046;-72
2023/05/09 08:57:27;;;;;;;32.03;10.93;;;16.00;99.90;;;;;;4983399;28;20060;-74
2023/05/09 08:59:54;;;;;;;27.23;11.98;;;16.00;99.90;;;;;;4983696;28;20126;-72
2023/05/09 09:02:21;;;;;;;28.38;11.57;;;16.10;99.90;;;;;;4982551;28;20077;-72
2023/05/09 09:04:46;;;;;;;27.17;9.93;;;16.10;99.90;;;;;;4984344;28;20042;-72
2023/05/09 09:07:14;;;;;;;30.55;9.93;;;16.10;99.90;;;;;;4983192;28;20101;-72
2023/05/09 09:09:45;;;;;;;27.65;11.10;;;16.20;99.90;;;;;;4982790;28;20042;-72
2023/05/09 09:12:12;;;;;;;22.02;10.00;;;16.20;99.90;;;;;;4965437;28;20125;-72
2023/05/09 09:14:41;;;;;;;22.20;10.05;;;16.20;99.90;;;;;;4964808;28;20448;-72
2023/05/09 09:17:08;;;;;;;28.63;10.20;;;16.20;99.90;;;;;;4965032;28;20158;-73
2023/05/09 09:19:38;;;;;;;25.15;10.10;;;16.30;99.90;;;;;;4963948;28;20430;-72
2023/05/09 09:22:04;;;;;;;26.58;10.90;;;16.30;99.90;;;;;;4963057;28;20409;-73
2023/05/09 09:24:31;;;;;;;27.42;10.20;;;16.40;99.90;;;;;;4962119;28;20351;-73
2023/05/09 09:26:56;;;;;;;23.25;9.45;;;16.40;99.90;;;;;;4964943;28;20039;-73
2023/05/09 09:29:22;;;;;;;22.88;9.77;;;16.50;99.90;;;;;;4966309;28;20105;-74
2023/05/09 09:31:53;;;;;;;21.20;9.55;;;16.50;99.90;;;;;;4983001;28;20481;-73
2023/05/09 09:34:21;;;;;;;27.40;10.43;;;16.50;99.90;;;;;;4979017;28;20129;-74
2023/05/09 09:36:47;;;;;;;22.05;8.93;;;16.50;99.90;;;;;;4979599;28;20121;-72
2023/05/09 09:39:13;;;;;;;26.45;8.68;;;16.50;99.90;;;;;;4983415;28;20369;-72
2023/05/09 09:41:39;;;;;;;20.65;8.93;;;16.60;99.90;;;;;;4982223;28;20077;-72
2023/05/09 09:44:15;;;;;;;24.48;9.07;;;16.60;99.90;;;;;;4982422;28;20046;-73
2023/05/09 09:46:49;;;;;;;21.02;8.80;;;16.60;99.90;;;;;;4983998;28;20046;-72
2023/05/09 09:49:17;;;;;;;25.90;8.93;;;16.60;99.90;;;;;;4983896;28;20052;-73
2023/05/09 09:51:43;;;;;;;21.33;7.72;;;16.60;99.90;;;;;;4965625;28;20040;-72
2023/05/09 09:54:10;;;;;;;20.55;8.95;;;16.70;99.90;;;;;;4983229;28;20042;-73
2023/05/09 09:56:39;;;;;;;18.48;8.02;;;16.70;99.90;;;;;;4982421;28;20315;-72
2023/05/09 09:59:12;;;;;;;17.92;8.50;;;16.60;99.90;;;;;;4984005;28;20054;-72
2023/05/09 10:02:00;;;;;;;24.77;8.95;;;16.60;99.90;;;;;;4982907;28;20531;-72
2023/05/09 10:04:29;;;;;;;21.88;8.13;;;16.60;99.90;;;;;;4982155;28;20050;-73
2023/05/09 10:06:56;;;;;;;17.30;8.43;;;16.60;99.90;;;;;;4983819;28;20061;-72
2023/05/09 10:09:23;;;;;;;18.20;8.40;;;16.60;99.90;;;;;;4981077;28;20050;-72
2023/05/09 10:11:51;;;;;;;21.50;9.57;;;16.60;99.90;;;;;;4970852;28;20495;-72
2023/05/09 10:14:22;;;;;;;18.58;8.10;;;16.60;99.90;;;;;;4983084;28;20093;-72
2023/05/09 10:16:48;;;;;;;20.83;8.27;;;16.70;99.90;;;;;;4980309;28;20115;-73
2023/05/09 10:19:19;;;;;;;19.00;8.88;;;16.70;99.90;;;;;;4973835;28;20034;-74
2023/05/09 10:21:57;;;;;;;20.52;9.18;;;16.70;99.90;;;;;;4980326;28;20050;-74
2023/05/09 10:24:38;;;;;;;23.20;8.32;;;16.70;99.90;;;;;;4963232;28;20087;-74
2023/05/09 10:27:08;;;;;;;16.73;7.82;;;16.70;99.90;;;;;;4976999;28;20060;-74
2023/05/09 10:29:43;;;;;;;20.13;8.73;;;16.70;99.90;;;;;;4982629;28;20124;-73
2023/05/09 10:32:37;;;;;;;18.10;8.30;;;16.70;99.90;;;;;;4970829;28;20057;-74
2023/05/09 10:35:09;;;;;;;18.25;8.95;;;16.70;99.90;;;;;;4973908;28;20081;-73
2023/05/09 10:37:35;;;;;;;16.48;8.45;;;16.60;99.90;;;;;;4980827;28;20096;-74
2023/05/09 10:40:03;;;;;;;15.90;7.82;;;16.60;99.90;;;;;;4981732;28;20054;-74
2023/05/09 10:42:30;;;;;;;15.02;7.35;;;16.50;99.90;;;;;;4982902;28;20125;-75
2023/05/09 10:44:56;;;;;;;20.00;8.73;;;16.50;99.90;;;;;;4981903;28;20180;-74
2023/05/09 10:47:25;;;;;;;17.90;8.80;;;16.40;99.90;;;;;;4982642;28;20050;-72
2023/05/09 10:49:51;;;;;;;18.10;7.95;;;16.40;99.90;;;;;;4981283;28;20101;-73
2023/05/09 10:52:19;;;;;;;15.50;7.95;;;16.40;99.90;;;;;;4981851;28;20358;-73
2023/05/09 10:55:02;;;;;;;15.77;8.38;;;16.40;99.90;;;;;;4981794;28;20532;-72
2023/05/09 10:57:30;;;;;;;14.27;7.20;;;16.30;99.90;;;;;;4982264;28;20026;-73
2023/05/09 10:59:56;;;;;;;12.70;7.18;;;16.30;99.90;;;;;;4982154;28;20552;-74
2023/05/09 11:02:28;;;;;;;13.95;7.53;;;16.30;99.90;;;;;;4982258;28;20096;-73
2023/05/09 11:05:16;;;;;;;14.80;8.30;;;16.30;99.90;;;;;;4983248;28;20042;-72
2023/05/09 11:07:42;;;;;;;14.25;7.38;;;16.40;99.90;;;;;;4981513;28;20050;-73
2023/05/09 11:10:18;;;;;;;14.30;7.57;;;16.40;99.90;;;;;;4978969;28;20100;-73
2023/05/09 11:12:57;;;;;;;15.88;8.05;;;16.40;99.90;;;;;;4976899;28;20121;-73
2023/05/09 11:15:23;;;;;;;16.05;7.53;;;16.50;99.90;;;;;;4981791;28;20041;-73
2023/05/09 11:18:08;;;;;;;14.05;7.55;;;16.40;99.90;;;;;;4982556;28;20042;-74
2023/05/09 11:20:41;;;;;;;13.48;6.90;;;16.40;99.90;;;;;;4980313;28;20124;-73
2023/05/09 11:23:09;;;;;;;14.18;6.85;;;16.40;99.90;;;;;;4981953;28;20139;-74
2023/05/09 11:25:34;;;;;;;11.35;5.65;;;16.30;99.90;;;;;;4976776;28;20050;-73
2023/05/09 11:28:01;;;;;;;12.07;5.97;;;16.30;99.90;;;;;;4980120;28;20045;-74
2023/05/09 11:30:40;;;;;;;9.98;6.05;;;16.30;99.90;;;;;;4976308;28;20030;-74
2023/05/09 11:33:19;;;;;;;11.90;6.68;;;16.30;99.90;;;;;;4980345;28;20046;-75
2023/05/09 11:35:45;;;;;;;12.27;7.28;;;16.30;99.90;;;;;;4984828;28;20084;-73
2023/05/09 11:38:20;;;;;;;12.45;6.68;;;16.30;99.90;;;;;;4973396;28;20078;-74
2023/05/09 11:40:47;;;;;;;13.93;7.63;;;16.20;99.90;;;;;;4982088;28;20501;-73
2023/05/09 11:43:13;;;;;;;15.88;7.13;;;16.20;99.90;;;;;;4964041;28;20038;-73
2023/05/09 11:45:40;;;;;;;12.10;7.10;;;16.20;99.90;;;;;;4962153;28;20112;-73
2023/05/09 11:48:09;;;;;;;15.90;7.47;;;16.20;99.90;;;;;;5001723;28;20060;-75
2023/05/09 11:50:35;;;;;;;15.82;7.28;;;16.20;99.90;;;;;;4990611;28;20049;-74
2023/05/09 11:53:00;;;;;;;14.48;7.00;;;16.20;99.90;;;;;;4977465;28;20038;-74
2023/05/09 11:55:28;;;;;;;13.95;6.88;;;16.20;99.90;;;;;;4981386;28;20682;-74
2023/05/09 11:57:54;;;;;;;17.25;7.45;;;16.20;99.90;;;;;;4981080;28;20412;-74
2023/05/09 12:00:25;;;;;;;15.55;6.82;;;16.20;99.90;;;;;;4992083;28;20057;-74
2023/05/09 12:02:51;;;;;;;15.68;7.30;;;16.30;99.90;;;;;;4991329;28;20047;-74
2023/05/09 12:05:19;;;;;;;13.65;6.15;;;16.20;99.90;;;;;;4986225;28;20070;-72
2023/05/09 12:07:45;;;;;;;13.52;6.47;;;16.30;99.90;;;;;;4980780;28;20038;-74
2023/05/09 12:10:14;;;;;;;11.25;6.65;;;16.30;99.90;;;;;;4974679;28;20513;-73
2023/05/09 12:12:51;;;;;;;12.32;7.10;;;16.40;99.90;;;;;;4980609;28;20034;-73
2023/05/09 12:15:18;;;;;;;15.38;6.80;;;16.40;99.90;;;;;;4985162;28;20569;-73
2023/05/09 12:17:45;;;;;;;14.32;6.80;;;16.40;99.90;;;;;;4985152;28;20046;-73
2023/05/09 12:20:11;;;;;;;11.35;6.07;;;16.50;99.90;;;;;;4984878;28;20104;-73
2023/05/09 12:22:36;;;;;;;9.77;6.18;;;16.50;99.90;;;;;;4982864;28;20050;-73
2023/05/09 12:25:07;;;;;;;12.27;6.05;;;16.50;99.90;;;;;;4984525;28;20038;-73
2023/05/09 12:27:37;;;;;;;10.00;5.35;;;16.40;99.90;;;;;;4983502;28;20481;-73
2023/05/09 12:30:10;;;;;;;9.55;5.85;;;16.50;99.90;;;;;;4985471;28;20045;-73
2023/05/09 12:32:38;;;;;;;9.05;5.25;;;16.50;99.90;;;;;;4983706;28;20050;-73
2023/05/09 12:35:07;;;;;;;10.77;5.00;;;16.40;99.90;;;;;;4983405;28;20097;-73